KMFV

Accomack County Airport

Melfa, Virginia, USA
METAR KMFV 250055Z AUTO 13003KT 10SM CLR 18/16 A3016 RMK AO2 T01800157
Observed Flight Rules
May-25 @ 00:55 UTC (5 minutes ago) Visual Flight Rules
Wind Visibility Clouds
130° at 3 knots 10 miles
  • Clear skies
Temperatures Readings
Current 18°C / 64°F
Dewpoint 16°C / 61°F
Humidity 88%
Altimeter 30.16" Hg
Pressure 1021 hPa
Elevation 15
METAR KMFV 250055Z AUTO 13003KT 10SM CLR 18/16 A3016 RMK AO2 T01800157
Observed Flight Rules
May-25 @ 00:55 UTC
(5 minutes ago)
VFR
Wind Visibility
130° at 3 knots 10 miles
Clouds
  • Clear skies
Temperature Dewpoint
18°C / 64°F 16°C / 61°F
Humidity Altimeter Pressure
88% 30.16" Hg 1021 hPa